Weather at Billings Logan International Airport

Public forecast

Using degrees Fahrenheit for public forecast. Weather courtesy of forecast.io.

Current aviation weather report (METAR) for Billings Logan International Airport

Report is more than 6 hours old.

2022/11/14 15:30 (retrieved 2 years ago)

KBIL 141530Z 26015KT 10SM BKN044 OVC060 M01/M06 A3015

Aviation forecast (TAF) for Billings Logan International Airport

Forecast is more than 12 hours old.

2023/02/22 18:36 (retrieved 1 year ago)

TAF KBIL 221735Z 2218/2318 05012KT 3/4SM -SN BR BLSN OVC015 FM230200 04012KT 1 1/2SM -SN BR BLSN OVC020 FM231100 05009KT P6SM BKN035